createdAt,value
2022-11-19T00:00:02.361Z,70.39
2022-11-19T00:02:31.086Z,70.47
2022-11-19T00:04:58.224Z,70.45
2022-11-19T00:07:24.782Z,70.31
2022-11-19T00:09:52.030Z,70.19
2022-11-19T00:12:37.038Z,70.10
2022-11-19T00:15:03.837Z,70.36
2022-11-19T00:17:30.424Z,70.67
2022-11-19T00:19:57.666Z,70.07
2022-11-19T00:22:24.227Z,70.48
2022-11-19T00:24:50.961Z,70.28
2022-11-19T00:27:17.496Z,69.72
2022-11-19T00:29:44.020Z,70.04
2022-11-19T00:32:10.594Z,70.00
2022-11-19T00:34:37.083Z,70.32
2022-11-19T00:37:03.772Z,70.47
2022-11-19T00:39:30.379Z,69.73
2022-11-19T00:41:56.966Z,70.07
2022-11-19T00:44:23.493Z,69.81
2022-11-19T00:46:50.015Z,69.30
2022-11-19T00:49:17.019Z,69.40
2022-11-19T00:51:43.724Z,69.85
2022-11-19T00:54:10.362Z,69.79
2022-11-19T00:56:36.873Z,69.66
2022-11-19T00:59:03.523Z,69.71
2022-11-19T01:01:30.102Z,69.69
2022-11-19T01:03:56.716Z,69.99
2022-11-19T01:06:24.835Z,69.75
2022-11-19T01:08:54.655Z,69.40
2022-11-19T01:11:29.358Z,69.04
2022-11-19T01:13:56.241Z,69.19
2022-11-19T01:16:28.027Z,69.48
2022-11-19T01:18:55.067Z,69.58
2022-11-19T01:21:23.874Z,71.35
2022-11-19T01:23:50.396Z,71.86
2022-11-19T01:26:17.642Z,72.04
2022-11-19T01:28:45.105Z,72.41
2022-11-19T01:31:25.872Z,72.66
2022-11-19T01:33:52.937Z,72.66
2022-11-19T01:36:22.876Z,71.89
2022-11-19T01:38:51.037Z,72.14
2022-11-19T01:41:28.851Z,71.27
2022-11-19T01:43:59.091Z,71.06
2022-11-19T01:46:31.697Z,70.63
2022-11-19T01:48:59.313Z,71.10
2022-11-19T01:51:57.172Z,70.43
2022-11-19T01:54:30.042Z,70.65
2022-11-19T01:57:00.310Z,70.05
2022-11-19T01:59:28.217Z,70.28
2022-11-19T02:01:54.828Z,70.08
2022-11-19T02:04:21.564Z,70.22
2022-11-19T02:06:48.369Z,69.82
2022-11-19T02:09:15.024Z,70.08
2022-11-19T02:12:10.143Z,69.54
2022-11-19T02:14:56.460Z,69.64
2022-11-19T02:17:39.354Z,68.91
2022-11-19T02:20:20.997Z,69.75
2022-11-19T02:23:15.514Z,69.56
2022-11-19T02:26:00.683Z,70.12
2022-11-19T02:28:53.345Z,70.49
2022-11-19T02:31:23.958Z,70.62
2022-11-19T02:33:50.477Z,70.89
2022-11-19T02:36:23.300Z,69.88
2022-11-19T02:39:06.206Z,69.42
2022-11-19T02:41:39.877Z,69.88
2022-11-19T02:44:48.104Z,69.86
2022-11-19T02:47:18.879Z,70.47
2022-11-19T02:49:45.840Z,70.64
2022-11-19T02:52:14.143Z,70.44
2022-11-19T02:54:40.706Z,70.82
2022-11-19T02:57:10.717Z,70.17
2022-11-19T02:59:59.549Z,69.79
2022-11-19T03:02:57.283Z,69.83
2022-11-19T03:05:26.446Z,69.46
2022-11-19T03:07:53.596Z,70.34
2022-11-19T03:10:23.109Z,70.93
2022-11-19T03:12:55.541Z,69.51
2022-11-19T03:15:55.080Z,69.08
2022-11-19T03:18:34.108Z,69.78
2022-11-19T03:21:05.453Z,69.89
2022-11-19T03:23:34.324Z,69.61
2022-11-19T03:26:10.513Z,69.10
2022-11-19T03:28:38.082Z,68.40
2022-11-19T03:31:05.753Z,68.19
2022-11-19T03:33:35.290Z,69.16
2022-11-19T03:36:12.954Z,69.81
2022-11-19T03:38:43.150Z,69.60
2022-11-19T03:41:12.608Z,69.10
2022-11-19T03:43:40.867Z,68.94
2022-11-19T03:46:11.083Z,69.53
2022-11-19T03:48:38.704Z,69.20
2022-11-19T03:51:10.543Z,69.48
2022-11-19T03:53:37.227Z,69.19
2022-11-19T03:56:06.989Z,68.66
2022-11-19T03:58:42.169Z,68.92
2022-11-19T04:01:10.000Z,68.71
2022-11-19T04:03:36.806Z,69.01
2022-11-19T04:06:04.616Z,69.52
2022-11-19T04:08:31.307Z,69.16
2022-11-19T04:13:28.100Z,69.01
2022-11-19T04:15:54.622Z,69.48
2022-11-19T04:18:22.222Z,69.35
2022-11-19T04:20:48.782Z,69.31
2022-11-19T04:23:15.558Z,69.21
2022-11-19T04:25:46.716Z,69.35
2022-11-19T04:28:13.250Z,69.08
2022-11-19T04:30:39.785Z,68.96
2022-11-19T04:33:06.432Z,69.12
2022-11-19T04:35:33.415Z,69.13
2022-11-19T04:37:59.945Z,68.83
2022-11-19T04:40:26.542Z,69.12
2022-11-19T04:42:53.231Z,68.88
2022-11-19T04:45:19.843Z,68.43
2022-11-19T04:47:46.391Z,68.37
2022-11-19T04:50:13.000Z,68.56
2022-11-19T04:52:41.460Z,69.17
2022-11-19T04:55:09.444Z,69.53
2022-11-19T04:57:36.008Z,69.34
2022-11-19T05:00:03.956Z,69.26
2022-11-19T05:02:30.459Z,69.30
2022-11-19T05:04:57.021Z,70.19
2022-11-19T05:07:23.626Z,70.28
2022-11-19T05:09:50.367Z,69.68
2022-11-19T05:12:17.305Z,69.40
2022-11-19T05:14:43.871Z,69.70
2022-11-19T05:17:10.397Z,69.96
2022-11-19T05:19:37.020Z,70.02
2022-11-19T05:22:03.579Z,69.88
2022-11-19T05:24:30.215Z,69.84
2022-11-19T05:26:57.051Z,70.29
2022-11-19T05:29:23.658Z,69.27
2022-11-19T05:31:50.260Z,69.52
2022-11-19T05:34:17.040Z,69.33
2022-11-19T05:36:44.112Z,68.90
2022-11-19T05:39:10.606Z,68.87
2022-11-19T05:41:37.196Z,69.64
2022-11-19T05:44:03.892Z,69.93
2022-11-19T05:46:30.376Z,69.85
2022-11-19T05:48:56.981Z,69.12
2022-11-19T05:51:23.570Z,69.92
2022-11-19T05:53:50.196Z,69.05
2022-11-19T05:56:17.179Z,69.14
2022-11-19T05:58:43.738Z,69.15
2022-11-19T06:01:10.222Z,69.12
2022-11-19T06:03:36.857Z,68.78
2022-11-19T06:06:03.520Z,70.22
2022-11-19T06:08:30.090Z,71.13
2022-11-19T06:10:56.678Z,71.34
2022-11-19T06:13:23.238Z,70.06
2022-11-19T06:15:49.734Z,70.07
2022-11-19T06:18:16.400Z,70.71
2022-11-19T06:20:42.920Z,70.19
2022-11-19T06:23:09.497Z,70.35
2022-11-19T06:25:35.991Z,70.61
2022-11-19T06:28:02.597Z,70.43
2022-11-19T06:30:29.194Z,70.66
2022-11-19T06:32:55.770Z,70.89
2022-11-19T06:35:22.320Z,71.29
2022-11-19T06:37:49.268Z,70.49
2022-11-19T06:40:15.830Z,70.54
2022-11-19T06:42:43.668Z,69.60
2022-11-19T06:45:13.814Z,69.80
2022-11-19T06:47:41.885Z,69.89
2022-11-19T06:50:09.043Z,69.60
2022-11-19T06:52:35.870Z,69.93
2022-11-19T06:55:02.479Z,70.50
2022-11-19T06:57:29.054Z,70.31
2022-11-19T06:59:55.653Z,70.17
2022-11-19T07:02:22.160Z,70.37
2022-11-19T07:04:49.410Z,70.64
2022-11-19T07:07:16.048Z,71.37
2022-11-19T07:09:42.708Z,72.17
2022-11-19T07:12:09.543Z,71.65
2022-11-19T07:14:36.146Z,71.24
2022-11-19T07:17:03.045Z,70.87
2022-11-19T07:19:29.655Z,70.96
2022-11-19T07:21:56.214Z,70.82
2022-11-19T07:24:22.929Z,70.41
2022-11-19T07:26:49.508Z,70.69
2022-11-19T07:29:16.546Z,71.34
2022-11-19T07:31:43.266Z,71.16
2022-11-19T07:34:10.620Z,71.51
2022-11-19T07:36:37.352Z,71.72
2022-11-19T07:39:05.134Z,70.84
2022-11-19T07:41:50.440Z,70.28
2022-11-19T07:44:16.989Z,70.03
2022-11-19T07:46:43.492Z,69.69
2022-11-19T07:49:10.339Z,70.22
2022-11-19T07:51:37.037Z,71.03
2022-11-19T07:54:03.943Z,71.67
2022-11-19T07:56:30.482Z,72.53
2022-11-19T07:59:00.003Z,73.20
2022-11-19T08:01:27.046Z,73.08
2022-11-19T08:03:56.538Z,73.10
2022-11-19T08:06:28.027Z,72.63
2022-11-19T08:08:56.188Z,72.47
2022-11-19T08:11:23.313Z,71.60
2022-11-19T08:13:50.076Z,71.16
2022-11-19T08:16:36.077Z,70.73
2022-11-19T08:19:04.365Z,70.37
2022-11-19T08:21:30.937Z,70.27
2022-11-19T08:23:57.549Z,70.29
2022-11-19T08:26:24.781Z,69.79
2022-11-19T08:29:00.722Z,70.08
2022-11-19T08:31:27.327Z,70.51
2022-11-19T08:33:53.852Z,69.85
2022-11-19T08:36:21.035Z,70.45
2022-11-19T08:38:47.640Z,69.46
2022-11-19T08:41:40.299Z,69.79
2022-11-19T08:44:07.092Z,68.69
2022-11-19T08:46:33.801Z,68.78
2022-11-19T08:49:00.499Z,69.13
2022-11-19T08:51:27.295Z,69.58
2022-11-19T08:53:53.858Z,69.97
2022-11-19T08:56:21.397Z,70.09
2022-11-19T08:58:48.313Z,69.56
2022-11-19T09:01:18.360Z,69.67
2022-11-19T09:03:45.495Z,69.90
2022-11-19T09:06:12.748Z,69.88
2022-11-19T09:08:41.225Z,69.00
2022-11-19T09:11:13.846Z,68.99
2022-11-19T09:13:40.648Z,68.67
2022-11-19T09:16:07.991Z,68.81
2022-11-19T09:18:35.487Z,68.59
2022-11-19T09:21:02.475Z,68.87
2022-11-19T09:23:29.256Z,69.39
2022-11-19T09:26:10.635Z,68.39
2022-11-19T09:28:37.893Z,69.31
2022-11-19T09:31:24.777Z,68.33
2022-11-19T09:33:52.341Z,68.10
2022-11-19T09:36:19.854Z,68.32
2022-11-19T09:38:47.589Z,68.19
2022-11-19T09:41:25.366Z,68.04
2022-11-19T09:44:17.068Z,67.82
2022-11-19T09:46:58.164Z,67.52
2022-11-19T09:50:09.314Z,67.72
2022-11-19T09:52:41.068Z,67.47
2022-11-19T09:55:14.726Z,68.07
2022-11-19T09:57:53.629Z,68.43
2022-11-19T10:00:25.029Z,69.40
2022-11-19T10:02:53.364Z,68.25
2022-11-19T10:05:43.405Z,67.69
2022-11-19T10:08:28.593Z,67.83
2022-11-19T10:11:34.445Z,67.77
2022-11-19T10:14:22.879Z,67.97
2022-11-19T10:17:02.685Z,69.79
2022-11-19T10:19:51.442Z,69.02
2022-11-19T10:22:39.909Z,68.82
2022-11-19T10:25:18.180Z,69.20
2022-11-19T10:28:00.316Z,68.60
2022-11-19T10:30:29.036Z,69.24
2022-11-19T10:33:19.858Z,68.69
2022-11-19T10:35:48.434Z,68.61
2022-11-19T10:38:34.444Z,68.94
2022-11-19T10:41:38.793Z,68.78
2022-11-19T10:44:40.194Z,68.05
2022-11-19T10:47:32.065Z,69.79
2022-11-19T10:49:58.959Z,68.17
2022-11-19T10:52:27.671Z,69.79
2022-11-19T10:54:58.539Z,69.36
2022-11-19T10:57:26.024Z,69.49
2022-11-19T10:59:53.462Z,68.70
2022-11-19T11:02:27.984Z,68.45
2022-11-19T11:05:15.563Z,69.82
2022-11-19T11:07:54.760Z,69.63
2022-11-19T11:10:29.624Z,69.74
2022-11-19T11:13:17.616Z,68.53
2022-11-19T11:15:47.183Z,68.77
2022-11-19T11:18:15.038Z,68.24
2022-11-19T11:20:47.299Z,69.18
2022-11-19T11:23:17.529Z,69.42
2022-11-19T11:26:10.519Z,69.30
2022-11-19T11:28:37.161Z,69.30
2022-11-19T11:31:06.110Z,68.07
2022-11-19T11:33:43.211Z,69.18
2022-11-19T11:36:15.320Z,68.67
2022-11-19T11:38:46.828Z,67.50
2022-11-19T11:44:08.546Z,68.03
2022-11-19T11:46:37.983Z,68.66
2022-11-19T11:49:11.199Z,68.16
2022-11-19T11:51:39.847Z,67.88
2022-11-19T11:54:18.145Z,67.22
2022-11-19T11:56:45.594Z,66.64
2022-11-19T11:59:23.438Z,66.38
2022-11-19T12:01:54.923Z,66.66
2022-11-19T12:04:21.929Z,67.83
2022-11-19T12:06:58.844Z,67.47
2022-11-19T12:09:32.604Z,67.93
2022-11-19T12:12:21.885Z,67.92
2022-11-19T12:14:59.135Z,67.79
2022-11-19T12:17:54.588Z,68.42
2022-11-19T12:20:33.652Z,70.75
2022-11-19T12:23:15.653Z,69.23
2022-11-19T12:25:56.456Z,70.36
2022-11-19T12:28:49.815Z,69.42
2022-11-19T12:31:30.005Z,69.47
2022-11-19T12:34:20.440Z,69.55
2022-11-19T12:37:14.282Z,70.75
2022-11-19T12:39:51.142Z,71.31
2022-11-19T12:42:53.111Z,70.22
2022-11-19T12:45:48.405Z,69.92
2022-11-19T12:48:23.722Z,71.34
2022-11-19T12:50:55.816Z,69.80
2022-11-19T12:53:24.814Z,69.12
2022-11-19T12:56:12.638Z,69.50
2022-11-19T12:59:01.913Z,70.58
2022-11-19T13:01:33.863Z,70.80
2022-11-19T13:04:18.824Z,70.03
2022-11-19T13:06:55.431Z,70.42
2022-11-19T13:09:28.063Z,69.86
2022-11-19T13:12:00.568Z,70.62
2022-11-19T13:14:40.998Z,70.29
2022-11-19T13:17:19.224Z,69.79
2022-11-19T13:19:50.003Z,70.72
2022-11-19T13:22:20.621Z,70.26
2022-11-19T13:24:52.874Z,70.40
2022-11-19T13:27:23.457Z,71.85
2022-11-19T13:29:56.924Z,71.27
2022-11-19T13:32:30.479Z,70.03
2022-11-19T13:35:16.192Z,70.30
2022-11-19T13:37:58.909Z,70.57
2022-11-19T13:40:50.157Z,70.67
2022-11-19T13:43:38.102Z,69.15
2022-11-19T13:46:11.207Z,69.18
2022-11-19T13:48:44.254Z,68.62
2022-11-19T13:51:22.090Z,68.38
2022-11-19T13:53:48.687Z,68.85
2022-11-19T13:56:17.242Z,68.85
2022-11-19T13:58:53.147Z,69.49
2022-11-19T14:01:47.103Z,68.75
2022-11-19T14:04:26.840Z,68.66
2022-11-19T14:07:11.814Z,68.50
2022-11-19T14:09:44.500Z,68.70
2022-11-19T14:12:34.587Z,68.88
2022-11-19T14:15:41.654Z,68.92
2022-11-19T14:18:35.903Z,69.68
2022-11-19T14:21:42.878Z,70.67
2022-11-19T14:24:43.012Z,71.40
2022-11-19T14:27:33.168Z,71.72
2022-11-19T14:29:59.630Z,72.06
2022-11-19T14:32:30.350Z,71.41
2022-11-19T14:35:03.041Z,71.39
2022-11-19T14:37:45.473Z,71.54
2022-11-19T14:40:15.076Z,71.85
2022-11-19T14:43:18.814Z,72.51
2022-11-19T14:46:04.274Z,72.26
2022-11-19T14:48:35.719Z,71.99
2022-11-19T14:51:07.275Z,73.14
2022-11-19T14:53:36.977Z,71.24
2022-11-19T14:56:13.682Z,70.88
2022-11-19T14:58:53.810Z,71.43
2022-11-19T15:01:22.287Z,71.36
2022-11-19T15:03:52.749Z,70.27
2022-11-19T15:06:19.857Z,71.49
2022-11-19T15:08:51.480Z,69.09
2022-11-19T15:11:18.214Z,69.38
2022-11-19T15:13:48.819Z,69.12
2022-11-19T15:16:25.503Z,69.88
2022-11-19T15:19:05.870Z,69.27
2022-11-19T15:21:44.591Z,69.46
2022-11-19T15:24:26.813Z,69.74
2022-11-19T15:27:41.599Z,69.98
2022-11-19T15:30:24.552Z,70.89
2022-11-19T15:33:15.713Z,70.67
2022-11-19T15:36:03.930Z,71.96
2022-11-19T15:38:54.129Z,71.62
2022-11-19T15:41:23.295Z,71.82
2022-11-19T15:44:13.849Z,71.25
2022-11-19T15:46:47.201Z,71.87
2022-11-19T15:49:21.553Z,72.12
2022-11-19T15:52:17.707Z,72.19
2022-11-19T15:54:44.907Z,71.59
2022-11-19T15:57:17.341Z,72.01
2022-11-19T15:59:47.746Z,71.57
2022-11-19T16:02:19.815Z,72.40
2022-11-19T16:04:49.134Z,72.53
2022-11-19T16:07:21.212Z,71.99
2022-11-19T16:09:49.439Z,71.70
2022-11-19T16:12:38.949Z,70.60
2022-11-19T16:15:42.843Z,70.74
2022-11-19T16:18:19.624Z,70.48
2022-11-19T16:20:48.535Z,70.95
2022-11-19T16:23:20.021Z,70.52
2022-11-19T16:25:47.538Z,69.79
2022-11-19T16:28:20.697Z,69.74
2022-11-19T16:30:52.979Z,69.60
2022-11-19T16:33:24.448Z,70.14
2022-11-19T16:35:53.509Z,68.92
2022-11-19T16:38:26.991Z,68.89
2022-11-19T16:41:14.070Z,69.02
2022-11-19T16:43:41.743Z,69.10
2022-11-19T16:46:12.044Z,68.52
2022-11-19T16:48:41.535Z,68.62
2022-11-19T16:51:34.373Z,68.61
2022-11-19T16:54:02.252Z,69.21
2022-11-19T16:56:41.431Z,69.63
2022-11-19T16:59:17.400Z,68.80
2022-11-19T17:01:50.828Z,68.58
2022-11-19T17:04:18.681Z,69.19
2022-11-19T17:06:45.457Z,68.73
2022-11-19T17:09:30.989Z,68.21
2022-11-19T17:12:16.297Z,68.88
2022-11-19T17:14:47.626Z,68.38
2022-11-19T17:17:40.218Z,68.04
2022-11-19T17:20:32.159Z,67.94
2022-11-19T17:22:59.854Z,67.83
2022-11-19T17:25:26.509Z,67.88
2022-11-19T17:27:55.523Z,67.48
2022-11-19T17:30:27.323Z,67.12
2022-11-19T17:32:58.644Z,67.19
2022-11-19T17:35:43.007Z,67.74
2022-11-19T17:38:16.492Z,68.05
2022-11-19T17:40:53.178Z,68.38
2022-11-19T17:43:43.875Z,68.26
2022-11-19T17:46:10.585Z,67.97
2022-11-19T17:48:40.499Z,67.30
2022-11-19T17:51:14.203Z,67.86
2022-11-19T17:53:40.963Z,67.74
2022-11-19T17:56:16.854Z,68.00
2022-11-19T17:58:43.486Z,69.14
2022-11-19T18:01:10.384Z,68.85
2022-11-19T18:03:39.066Z,69.46
2022-11-19T18:06:08.382Z,68.84
2022-11-19T18:08:36.923Z,68.74
2022-11-19T18:11:04.356Z,68.37
2022-11-19T18:13:33.448Z,68.53
2022-11-19T18:15:59.989Z,68.63
2022-11-19T18:18:26.589Z,68.96
2022-11-19T18:20:57.606Z,68.94
2022-11-19T18:23:27.345Z,68.54
2022-11-19T18:25:53.979Z,68.78
2022-11-19T18:28:20.550Z,68.54
2022-11-19T18:30:47.186Z,67.91
2022-11-19T18:33:13.856Z,67.53
2022-11-19T18:35:40.392Z,67.87
2022-11-19T18:38:07.009Z,67.85
2022-11-19T18:40:33.593Z,67.81
2022-11-19T18:43:18.959Z,67.97
2022-11-19T18:45:45.496Z,68.16
2022-11-19T18:48:12.109Z,68.38
2022-11-19T18:50:38.650Z,68.30
2022-11-19T18:53:05.252Z,68.83
2022-11-19T18:55:31.806Z,68.73
2022-11-19T18:57:58.560Z,68.85
2022-11-19T19:00:25.356Z,68.71
2022-11-19T19:02:51.911Z,68.67
2022-11-19T19:05:18.565Z,68.00
2022-11-19T19:07:48.298Z,69.32
2022-11-19T19:10:15.298Z,69.00
2022-11-19T19:12:42.672Z,69.26
2022-11-19T19:15:10.301Z,68.82
2022-11-19T19:17:37.007Z,69.40
2022-11-19T19:20:03.857Z,69.48
2022-11-19T19:22:30.445Z,68.57
2022-11-19T19:24:58.467Z,68.46
2022-11-19T19:27:25.586Z,68.87
2022-11-19T19:29:52.174Z,69.09
2022-11-19T19:32:18.734Z,70.64
2022-11-19T19:34:45.310Z,69.92
2022-11-19T19:37:11.906Z,70.05
2022-11-19T19:39:38.671Z,70.85
2022-11-19T19:42:05.298Z,71.44
2022-11-19T19:44:32.141Z,70.29
2022-11-19T19:46:59.352Z,70.18
2022-11-19T19:49:27.113Z,69.78
2022-11-19T19:51:53.713Z,69.58
2022-11-19T19:54:20.436Z,69.70
2022-11-19T19:56:47.028Z,69.36
2022-11-19T19:59:14.166Z,69.60
2022-11-19T20:01:44.767Z,69.92
2022-11-19T20:04:11.877Z,70.51
2022-11-19T20:06:41.636Z,71.48
2022-11-19T20:09:08.922Z,70.81
2022-11-19T20:11:36.840Z,70.84
2022-11-19T20:14:03.973Z,70.73
2022-11-19T20:16:32.196Z,70.44
2022-11-19T20:18:59.821Z,70.82
2022-11-19T20:21:28.898Z,70.65
2022-11-19T20:23:55.957Z,70.00
2022-11-19T20:26:24.520Z,69.74
2022-11-19T20:28:56.330Z,70.51
2022-11-19T20:31:23.384Z,70.43
2022-11-19T20:33:58.155Z,69.36
2022-11-19T20:36:26.522Z,69.43
2022-11-19T20:38:53.426Z,69.42
2022-11-19T20:41:40.305Z,69.85
2022-11-19T20:44:22.011Z,69.59
2022-11-19T20:46:53.961Z,70.01
2022-11-19T20:49:24.510Z,70.32
2022-11-19T20:51:52.803Z,71.02
2022-11-19T20:54:20.109Z,70.29
2022-11-19T20:56:48.784Z,69.82
2022-11-19T20:59:15.630Z,70.04
2022-11-19T21:01:46.188Z,71.00
2022-11-19T21:04:13.179Z,69.63
2022-11-19T21:06:40.407Z,70.41
2022-11-19T21:09:15.740Z,72.10
2022-11-19T21:11:43.556Z,72.25
2022-11-19T21:14:10.300Z,72.69
2022-11-19T21:16:37.050Z,72.48
2022-11-19T21:19:04.085Z,71.40
2022-11-19T21:21:31.054Z,70.99
2022-11-19T21:23:58.234Z,71.08
2022-11-19T21:26:26.524Z,70.85
2022-11-19T21:28:57.517Z,70.15
2022-11-19T21:31:38.474Z,70.46
2022-11-19T21:34:07.578Z,70.48
2022-11-19T21:36:34.809Z,69.94
2022-11-19T21:39:02.951Z,69.33
2022-11-19T21:41:29.396Z,69.80
2022-11-19T21:43:56.629Z,68.87
2022-11-19T21:46:23.445Z,69.64
2022-11-19T21:48:50.173Z,69.38
2022-11-19T21:51:21.481Z,68.93
2022-11-19T21:53:53.245Z,68.78
2022-11-19T21:56:19.778Z,68.66
2022-11-19T21:58:46.665Z,69.13
2022-11-19T22:01:13.472Z,69.15
2022-11-19T22:03:44.310Z,68.81
2022-11-19T22:06:11.948Z,69.13
2022-11-19T22:08:40.092Z,69.36
2022-11-19T22:11:26.270Z,68.78
2022-11-19T22:13:54.728Z,69.45
2022-11-19T22:16:21.932Z,68.59
2022-11-19T22:18:48.477Z,68.59
2022-11-19T22:21:15.815Z,67.91
2022-11-19T22:23:42.681Z,68.76
2022-11-19T22:26:10.590Z,68.30
2022-11-19T22:28:37.662Z,69.25
2022-11-19T22:31:04.689Z,68.48
2022-11-19T22:33:32.456Z,68.02
2022-11-19T22:36:02.704Z,68.40
2022-11-19T22:38:31.992Z,68.73
2022-11-19T22:41:07.205Z,68.08
2022-11-19T22:43:37.899Z,68.34
2022-11-19T22:46:05.277Z,69.12
2022-11-19T22:48:32.864Z,68.59
2022-11-19T22:51:00.155Z,68.41
2022-11-19T22:53:27.328Z,68.73
2022-11-19T22:56:02.719Z,68.73
2022-11-19T22:58:32.223Z,68.81
2022-11-19T23:00:59.045Z,68.63
2022-11-19T23:03:25.711Z,69.04
2022-11-19T23:05:53.621Z,68.75
2022-11-19T23:08:20.430Z,68.81
2022-11-19T23:10:47.998Z,68.55
2022-11-19T23:13:34.567Z,68.81
2022-11-19T23:16:15.108Z,68.53
2022-11-19T23:18:49.733Z,68.24
2022-11-19T23:21:27.700Z,68.71
2022-11-19T23:23:55.136Z,68.07
2022-11-19T23:26:24.163Z,68.67
2022-11-19T23:28:51.829Z,69.05
2022-11-19T23:31:23.362Z,68.30
2022-11-19T23:33:55.815Z,68.56
2022-11-19T23:36:30.372Z,69.00
2022-11-19T23:38:57.515Z,68.96
2022-11-19T23:41:24.122Z,68.73
2022-11-19T23:43:53.387Z,68.81
2022-11-19T23:46:30.974Z,68.59
2022-11-19T23:48:58.498Z,68.82
2022-11-19T23:51:28.214Z,69.26
2022-11-19T23:53:55.244Z,69.29
2022-11-19T23:56:23.133Z,68.51
2022-11-19T23:58:50.207Z,68.40
